Time;durP1;ratioP1;P1;durP2;ratioP2;P2;SDS_P1;SDS_P2;PMS_P1;PMS_P2;Temp;Humidity;BMP_temperature;BMP_pressure;BME280_temperature;BME280_humidity;BME280_pressure;Samples;Min_cycle;Max_cycle;Signal;HPM_P1;HPM_P2
2023/02/20 00:00:39;;;;;;;13.25;2.00;;;;;;;3.57;100.00;101225.25;5004971;28;20030;-76
2023/02/20 00:03:05;;;;;;;7.82;2.10;;;;;;;3.55;100.00;101195.47;5012118;28;20068;-79
2023/02/20 00:05:31;;;;;;;15.88;4.25;;;;;;;3.47;100.00;101163.50;5010609;28;20407;-78
2023/02/20 00:07:56;;;;;;;10.50;2.80;;;;;;;3.48;100.00;101173.09;5020023;28;20034;-78
2023/02/20 00:10:23;;;;;;;13.98;3.65;;;;;;;3.42;100.00;101157.66;5008644;28;20053;-78
2023/02/20 00:12:49;;;;;;;8.63;2.58;;;;;;;3.47;100.00;101159.06;5012578;28;20065;-77
2023/02/20 00:15:15;;;;;;;;;;;;;;;3.49;100.00;101148.38;5007385;28;20309;-76
2023/02/20 00:17:46;;;;;;;9.20;3.10;;;;;;;3.48;100.00;101138.78;5012485;28;19963;-79
2023/02/20 00:20:18;;;;;;;8.35;2.90;;;;;;;3.46;100.00;101130.94;5010533;28;20037;-76
2023/02/20 00:22:43;;;;;;;11.43;2.90;;;;;;;3.51;100.00;101126.22;5011569;28;20041;-76
2023/02/20 00:25:09;;;;;;;9.90;3.23;;;;;;;3.52;100.00;101113.84;5009143;28;20033;-76
2023/02/20 00:27:34;;;;;;;10.75;3.72;;;;;;;3.54;100.00;101102.25;5010684;28;20129;-78
2023/02/20 00:30:00;;;;;;;18.20;4.77;;;;;;;3.52;100.00;101098.03;5010771;28;20026;-77
2023/02/20 00:32:25;;;;;;;8.07;2.93;;;;;;;3.45;100.00;101065.09;5003427;28;20370;-78
2023/02/20 00:34:51;;;;;;;14.00;4.43;;;;;;;3.48;100.00;101057.78;5011851;28;20040;-77
2023/02/20 00:37:17;;;;;;;7.60;2.85;;;;;;;3.52;100.00;101068.97;5014201;28;20376;-78
2023/02/20 00:39:42;;;;;;;9.07;3.67;;;;;;;3.50;100.00;101057.69;5011004;28;20065;-76
2023/02/20 00:42:08;;;;;;;8.75;3.20;;;;;;;3.54;100.00;101045.97;5009339;28;20533;-76
2023/02/20 00:44:33;;;;;;;11.60;4.40;;;;;;;3.54;100.00;101046.78;5030950;22;20076;-73
2023/02/20 00:46:59;;;;;;;11.00;3.03;;;;;;;3.58;100.00;101037.72;4986679;28;20128;-75
2023/02/20 00:49:24;;;;;;;13.03;2.77;;;;;;;3.59;100.00;101022.69;5003801;28;20191;-74
2023/02/20 00:51:50;;;;;;;;;;;;;;;3.56;100.00;101034.34;5000689;28;20169;-73
2023/02/20 00:54:16;;;;;;;15.20;3.85;;;;;;;3.61;100.00;101020.81;5004375;28;20425;-74
2023/02/20 00:56:41;;;;;;;8.82;3.28;;;;;;;3.66;100.00;101023.94;4986271;28;20034;-74
2023/02/20 00:59:07;;;;;;;11.40;3.07;;;;;;;3.66;100.00;101013.38;5003405;28;20278;-74
2023/02/20 01:01:32;;;;;;;10.23;3.27;;;;;;;3.63;100.00;100997.78;4986516;28;20141;-74
2023/02/20 01:03:58;;;;;;;9.20;3.17;;;;;;;3.66;100.00;100988.78;4970722;28;20373;-74
2023/02/20 01:06:23;;;;;;;4.80;3.23;;;;;;;3.69;100.00;100991.19;4986625;28;20395;-73
2023/02/20 01:08:49;;;;;;;11.27;4.00;;;;;;;3.70;100.00;100984.94;5003129;28;20073;-74
2023/02/20 01:11:15;;;;;;;6.00;2.63;;;;;;;3.65;100.00;100979.16;4988153;28;21195;-72
2023/02/20 01:13:40;;;;;;;13.03;2.93;;;;;;;3.65;100.00;100973.88;4986857;28;20049;-73
2023/02/20 01:16:06;;;;;;;13.37;4.40;;;;;;;3.69;100.00;100973.53;4986664;28;20321;-73
2023/02/20 01:18:31;;;;;;;5.20;2.90;;;;;;;3.74;100.00;100966.13;4986696;28;20766;-74
2023/02/20 01:20:57;;;;;;;9.20;3.07;;;;;;;3.72;100.00;100939.00;4985950;28;20026;-74
2023/02/20 01:23:23;;;;;;;11.82;3.55;;;;;;;3.68;100.00;100924.34;4986698;28;20042;-73
2023/02/20 01:25:48;;;;;;;4.57;2.65;;;;;;;3.65;100.00;100926.34;4986160;28;20039;-73
2023/02/20 01:28:14;;;;;;;6.80;2.47;;;;;;;3.70;100.00;100926.84;4986553;28;20066;-74
2023/02/20 01:30:39;;;;;;;6.10;2.75;;;;;;;3.64;100.00;100914.13;4986350;28;20084;-74
2023/02/20 01:33:05;;;;;;;9.17;2.47;;;;;;;3.63;100.00;100923.84;4987211;28;20498;-72
2023/02/20 01:35:30;;;;;;;5.40;2.60;;;;;;;3.61;100.00;100925.75;4985873;28;20285;-73
2023/02/20 01:37:58;;;;;;;9.00;2.78;;;;;;;3.65;100.00;100921.06;5002625;28;20114;-74
2023/02/20 01:40:25;;;;;;;10.95;3.95;;;;;;;3.67;100.00;100927.09;4985840;28;20046;-75
2023/02/20 01:42:52;;;;;;;10.57;3.55;;;;;;;3.68;100.00;100923.50;4986190;28;20028;-74
2023/02/20 01:45:34;;;;;;;9.05;3.25;;;;;;;3.72;100.00;100928.44;4986177;28;20026;-73
2023/02/20 01:48:00;;;;;;;8.65;4.18;;;;;;;3.74;100.00;100915.94;5000745;28;20041;-73
2023/02/20 01:50:35;;;;;;;10.02;4.22;;;;;;;3.79;100.00;100928.81;5002464;28;20403;-73
2023/02/20 01:53:07;;;;;;;14.43;4.10;;;;;;;3.76;100.00;100929.88;4986021;28;20040;-74
2023/02/20 01:55:47;;;;;;;14.23;3.65;;;;;;;3.72;100.00;100946.94;5002101;28;20085;-73
2023/02/20 01:58:22;;;;;;;12.80;3.60;;;;;;;3.67;100.00;100946.41;4985598;28;20034;-75
2023/02/20 02:00:48;;;;;;;;;;;;;;;3.78;100.00;100962.31;5002392;28;20038;-74
2023/02/20 02:03:21;;;;;;;11.10;3.05;;;;;;;3.79;100.00;100956.09;4985575;28;19924;-74
2023/02/20 02:05:52;;;;;;;11.35;4.07;;;;;;;3.76;100.00;100942.25;4986845;28;20088;-74
2023/02/20 02:08:20;;;;;;;6.72;3.47;;;;;;;3.81;100.00;100961.22;4963236;28;20042;-74
2023/02/20 02:11:03;;;;;;;11.07;4.70;;;;;;;3.83;100.00;100955.84;4967753;28;20111;-73
2023/02/20 02:13:34;;;;;;;11.15;4.15;;;;;;;3.79;100.00;100950.81;4989017;28;20081;-74
2023/02/20 02:16:20;;;;;;;7.13;3.75;;;;;;;3.81;100.00;100951.50;4986851;28;20072;-74
2023/02/20 02:18:59;;;;;;;8.95;3.85;;;;;;;3.82;100.00;100947.09;4986788;28;20046;-72
2023/02/20 02:21:54;;;;;;;7.93;3.25;;;;;;;3.92;100.00;100960.44;4981210;28;20044;-72
2023/02/20 02:24:37;;;;;;;10.95;2.78;;;;;;;3.87;100.00;100954.66;4996693;28;20042;-72
2023/02/20 02:27:44;;;;;;;10.32;4.22;;;;;;;3.83;100.00;100940.84;4984998;28;20038;-75
2023/02/20 02:30:52;;;;;;;7.20;3.55;;;;;;;3.86;100.00;100960.88;4985794;28;20434;-75
2023/02/20 02:33:33;;;;;;;9.65;4.50;;;;;;;3.86;100.00;100974.94;4996519;28;20510;-74
2023/02/20 02:36:26;;;;;;;9.80;3.95;;;;;;;3.89;100.00;100987.94;4984590;28;20042;-74
2023/02/20 02:39:21;;;;;;;10.57;3.72;;;;;;;3.89;100.00;100987.09;5001278;28;20026;-75
2023/02/20 02:42:11;;;;;;;;;;;;;;;3.89;100.00;100995.03;4979212;28;20048;-76
2023/02/20 02:44:47;;;;;;;7.95;3.15;;;;;;;3.94;100.00;101017.50;4998313;28;20081;-75
2023/02/20 02:47:31;;;;;;;;;;;;;;;3.93;100.00;101031.66;5001677;28;20085;-75
2023/02/20 02:50:07;;;;;;;11.90;5.13;;;;;;;3.92;100.00;101050.25;5000692;28;19967;-74
2023/02/20 02:52:49;;;;;;;11.23;3.92;;;;;;;3.89;100.00;101039.94;4986334;28;20038;-76
2023/02/20 02:55:19;;;;;;;16.50;4.03;;;;;;;3.87;100.00;101045.31;4984995;28;20454;-76
2023/02/20 02:57:45;;;;;;;12.95;4.80;;;;;;;3.88;100.00;101049.63;4958185;28;20038;-74
2023/02/20 03:00:54;;;;;;;12.27;4.55;;;;;;;3.92;100.00;101039.69;4953384;28;20083;-76
2023/02/20 03:03:25;;;;;;;9.60;3.72;;;;;;;3.99;100.00;101040.94;4937523;28;20046;-76
2023/02/20 03:05:58;;;;;;;9.23;4.40;;;;;;;3.93;100.00;101028.16;5000876;28;20045;-76
2023/02/20 03:08:38;;;;;;;8.05;3.80;;;;;;;3.98;100.00;101024.25;4985920;28;20034;-76
2023/02/20 03:11:12;;;;;;;10.32;4.68;;;;;;;4.00;100.00;101018.81;4983076;28;20077;-75
2023/02/20 03:16:55;;;;;;;9.35;4.07;;;;;;;4.06;100.00;101001.69;4997673;28;20081;-74
2023/02/20 03:19:35;;;;;;;18.75;6.05;;;;;;;4.09;100.00;100989.09;4981074;28;20049;-75
2023/02/20 03:22:04;;;;;;;9.00;5.03;;;;;;;4.12;100.00;100993.28;5000625;28;20125;-74
2023/02/20 03:24:53;;;;;;;11.50;4.78;;;;;;;4.19;100.00;100983.94;4984909;28;20038;-73
2023/02/20 03:27:19;;;;;;;8.15;4.45;;;;;;;4.18;100.00;100963.78;4995539;28;20031;-76
2023/02/20 03:29:46;;;;;;;12.63;5.32;;;;;;;4.19;100.00;100960.16;4984520;28;20717;-75
2023/02/20 03:43:24;;;;;;;12.40;5.43;;;;;;;4.36;100.00;100911.31;4978660;28;20117;-75
2023/02/20 03:46:03;;;;;;;12.25;5.70;;;;;;;4.36;100.00;100906.03;4984563;28;20026;-76
2023/02/20 03:48:52;;;;;;;13.55;6.75;;;;;;;4.32;100.00;100899.28;4984307;28;20145;-73
2023/02/20 03:51:18;;;;;;;16.45;5.85;;;;;;;4.36;100.00;100888.38;4995256;28;20034;-76
2023/02/20 03:54:04;;;;;;;13.95;6.65;;;;;;;4.41;100.00;100906.50;4984053;28;20034;-76
2023/02/20 03:56:35;;;;;;;13.70;6.32;;;;;;;4.49;100.00;100914.69;5000310;28;20486;-75
2023/02/20 03:59:08;;;;;;;14.30;6.63;;;;;;;4.41;100.00;100898.59;4998299;28;20066;-76
2023/02/20 04:01:36;;;;;;;17.42;7.13;;;;;;;4.48;100.00;100899.78;4984037;28;20804;-73
2023/02/20 04:04:02;;;;;;;12.85;6.22;;;;;;;4.46;100.00;100891.13;5000305;28;20436;-76
2023/02/20 04:06:30;;;;;;;16.05;6.60;;;;;;;4.49;100.00;100875.00;5000098;28;20069;-75
2023/02/20 04:09:06;;;;;;;10.20;6.32;;;;;;;4.48;100.00;100861.94;4984034;28;20037;-76
2023/02/20 04:12:24;;;;;;;17.80;8.02;;;;;;;4.56;100.00;100860.34;4983361;28;20027;-76
2023/02/20 04:14:52;;;;;;;17.52;7.88;;;;;;;4.59;100.00;100838.97;4962454;28;20562;-73
2023/02/20 04:17:24;;;;;;;14.98;7.03;;;;;;;4.56;100.00;100831.25;4995420;28;20041;-76
2023/02/20 04:19:50;;;;;;;19.52;9.20;;;;;;;4.48;100.00;100825.75;4983962;28;20045;-73
2023/02/20 04:22:24;;;;;;;16.55;6.70;;;;;;;4.50;100.00;100829.13;4994556;28;20042;-75
2023/02/20 04:25:05;;;;;;;15.15;6.05;;;;;;;4.49;100.00;100818.66;4983619;28;20039;-73
2023/02/20 04:27:31;;;;;;;13.27;6.88;;;;;;;4.49;100.00;100816.84;4997198;28;20052;-73
2023/02/20 04:29:58;;;;;;;21.88;8.23;;;;;;;4.55;100.00;100812.91;4968700;28;20106;-76
2023/02/20 04:32:23;;;;;;;19.90;7.70;;;;;;;4.61;100.00;100802.69;5003934;28;20109;-75
2023/02/20 04:34:51;;;;;;;17.17;7.85;;;;;;;4.64;100.00;100789.19;4988827;28;20896;-75
2023/02/20 04:37:18;;;;;;;13.38;7.45;;;;;;;4.62;100.00;100783.19;4987616;28;20121;-76
2023/02/20 04:39:45;;;;;;;17.98;8.18;;;;;;;4.65;100.00;100774.16;4986736;28;20085;-74
2023/02/20 04:42:10;;;;;;;19.70;7.93;;;;;;;4.74;100.00;100783.16;5003897;28;20471;-75
2023/02/20 04:44:38;;;;;;;15.70;7.53;;;;;;;4.74;100.00;100776.06;4987599;28;20130;-76
2023/02/20 04:47:10;;;;;;;16.98;8.68;;;;;;;4.79;100.00;100765.94;5003602;28;20546;-76
2023/02/20 04:49:36;;;;;;;18.92;10.05;;;;;;;4.77;100.00;100749.38;4988318;28;20065;-75
2023/02/20 04:52:04;;;;;;;16.00;8.07;;;;;;;4.89;100.00;100734.28;4987357;28;20117;-74
2023/02/20 04:54:29;;;;;;;16.73;8.13;;;;;;;4.89;100.00;100741.41;4987326;28;20125;-76
2023/02/20 04:56:55;;;;;;;19.15;8.40;;;;;;;4.91;100.00;100737.66;5003178;28;20281;-75
2023/02/20 04:59:21;;;;;;;20.38;10.98;;;;;;;4.98;100.00;100716.81;5003429;28;20042;-76
2023/02/20 05:01:48;;;;;;;;;;;;;;;5.06;100.00;100723.16;4959960;28;20039;-75
2023/02/20 05:04:20;;;;;;;23.20;10.20;;;;;;;5.02;100.00;100689.97;4988141;28;19913;-76
2023/02/20 05:06:49;;;;;;;24.88;11.07;;;;;;;5.03;100.00;100678.44;4987249;28;20121;-75
2023/02/20 05:09:14;;;;;;;19.42;10.88;;;;;;;5.00;100.00;100657.53;4987143;28;20065;-76
2023/02/20 05:11:40;;;;;;;18.55;9.65;;;;;;;5.05;100.00;100649.19;4988106;28;20065;-73
2023/02/20 05:14:05;;;;;;;25.80;10.73;;;;;;;5.13;100.00;100667.06;5003290;28;20487;-73
2023/02/20 05:16:31;;;;;;;24.25;12.32;;;;;;;5.17;100.00;100663.19;4986242;28;20088;-75
2023/02/20 05:18:57;;;;;;;17.33;9.77;;;;;;;5.23;100.00;100667.97;4987964;28;20034;-75
2023/02/20 05:24:06;;;;;;;19.90;10.15;;;;;;;5.24;100.00;100629.94;4986436;28;20049;-75
2023/02/20 05:26:32;;;;;;;23.50;11.07;;;;;;;5.26;100.00;100626.19;4987461;28;20117;-74
2023/02/20 05:28:57;;;;;;;26.37;11.27;;;;;;;5.35;100.00;100624.56;4987978;28;20486;-74
2023/02/20 05:31:22;;;;;;;22.23;11.37;;;;;;;5.31;100.00;100586.09;4986120;28;20487;-76
2023/02/20 05:33:48;;;;;;;23.20;11.40;;;;;;;5.34;100.00;100600.88;4987603;28;20180;-74
2023/02/20 05:36:13;;;;;;;23.73;11.67;;;;;;;5.33;100.00;100586.81;5002595;28;20058;-75
2023/02/20 05:38:40;;;;;;;23.73;11.50;;;;;;;5.30;100.00;100563.25;4987717;28;20704;-75
2023/02/20 05:41:06;;;;;;;28.88;12.00;;;;;;;5.34;100.00;100580.56;4986716;28;20031;-75
2023/02/20 05:43:31;;;;;;;35.03;13.50;;;;;;;5.36;100.00;100578.63;4969880;28;20407;-75
2023/02/20 05:45:56;;;;;;;28.10;12.63;;;;;;;5.39;100.00;100554.50;4985988;28;20337;-75
2023/02/20 05:48:22;;;;;;;23.70;12.10;;;;;;;5.38;100.00;100544.88;4986423;28;20034;-74
2023/02/20 05:50:49;;;;;;;31.23;13.27;;;;;;;5.37;100.00;100553.81;4985748;28;20041;-75
2023/02/20 05:53:17;;;;;;;27.35;12.57;;;;;;;5.35;100.00;100545.16;4981905;28;20088;-75
2023/02/20 05:55:42;;;;;;;26.17;13.60;;;;;;;5.36;100.00;100552.16;4969538;28;20472;-75
2023/02/20 05:58:08;;;;;;;27.65;14.30;;;;;;;5.36;100.00;100556.56;4987358;28;20045;-75
2023/02/20 06:00:33;;;;;;;24.87;14.57;;;;;;;5.38;100.00;100552.00;4985243;28;20070;-73
2023/02/20 06:02:59;;;;;;;61.20;15.17;;;;;;;5.42;100.00;100537.53;4986995;28;20034;-74
2023/02/20 06:05:25;;;;;;;27.30;14.07;;;;;;;5.50;100.00;100549.13;4987347;28;20773;-75
2023/02/20 06:07:50;;;;;;;;;;;;;;;5.50;100.00;100535.03;4987663;28;20042;-74
2023/02/20 06:10:18;;;;;;;26.15;13.77;;;;;;;5.48;100.00;100535.19;4987104;28;19940;-75
2023/02/20 06:12:43;;;;;;;27.52;14.88;;;;;;;5.43;100.00;100526.81;4986803;28;20145;-75
2023/02/20 06:15:08;;;;;;;32.47;17.10;;;;;;;5.55;100.00;100529.31;4986483;28;20038;-73
2023/02/20 06:17:34;;;;;;;28.20;16.83;;;;;;;5.54;100.00;100517.06;4987146;28;20117;-73
2023/02/20 06:19:59;;;;;;;27.75;15.85;;;;;;;5.55;100.00;100516.09;4969811;28;20030;-74
2023/02/20 06:22:24;;;;;;;27.27;14.80;;;;;;;5.55;100.00;100518.72;4985740;28;20042;-76
2023/02/20 06:24:50;;;;;;;27.87;14.97;;;;;;;5.58;100.00;100529.06;4968758;28;20073;-75
2023/02/20 06:27:16;;;;;;;26.73;14.97;;;;;;;5.55;100.00;100524.88;4986976;28;20038;-75
2023/02/20 06:29:42;;;;;;;;;;;;;;;5.55;100.00;100524.03;4984322;28;20030;-75
2023/02/20 06:32:08;;;;;;;28.92;15.23;;;;;;;5.56;100.00;100545.09;4986713;28;19914;-75
2023/02/20 06:34:33;;;;;;;33.08;15.68;;;;;;;5.53;100.00;100541.88;4986259;28;20034;-73
2023/02/20 06:37:01;;;;;;;31.55;14.85;;;;;;;5.54;100.00;100556.78;4986562;28;20514;-75
2023/02/20 06:39:29;;;;;;;27.48;15.68;;;;;;;5.53;100.00;100541.88;4985615;28;20030;-75
2023/02/20 06:41:55;;;;;;;34.95;16.88;;;;;;;5.53;100.00;100560.44;4968454;28;20022;-75
2023/02/20 06:44:20;;;;;;;26.90;15.90;;;;;;;5.57;100.00;100565.31;5011426;23;20038;-77
2023/02/20 06:46:46;;;;;;;28.60;16.92;;;;;;;5.58;100.00;100560.84;4986061;28;20037;-78
2023/02/20 06:49:12;;;;;;;30.35;17.10;;;;;;;5.56;100.00;100566.28;4985833;28;20046;-77
2023/02/20 06:51:39;;;;;;;33.22;16.38;;;;;;;5.50;100.00;100559.72;4984792;28;20621;-77
2023/02/20 06:54:05;;;;;;;30.55;16.48;;;;;;;5.61;100.00;100593.19;4985869;28;20099;-78
2023/02/20 06:56:31;;;;;;;;;;;;;;;5.63;100.00;100590.41;5001705;28;20030;-77
2023/02/20 06:58:57;;;;;;;29.73;16.63;;;;;;;5.63;100.00;100599.19;4986256;28;19968;-76
2023/02/20 07:01:27;;;;;;;32.28;16.85;;;;;;;5.62;100.00;100594.88;5002200;28;20093;-79
2023/02/20 07:03:54;;;;;;;30.95;16.45;;;;;;;5.69;100.00;100600.47;5004528;28;20069;-76
2023/02/20 07:06:20;;;;;;;30.73;15.95;;;;;;;5.72;100.00;100616.09;4990098;28;20486;-77
2023/02/20 07:08:46;;;;;;;29.13;16.98;;;;;;;5.69;100.00;100592.53;4990306;28;20044;-76
2023/02/20 07:11:13;;;;;;;27.63;17.80;;;;;;;5.68;100.00;100598.78;4988935;28;20042;-76
2023/02/20 07:13:38;;;;;;;32.92;17.50;;;;;;;5.75;100.00;100594.63;4988888;28;20352;-78
2023/02/20 07:16:04;;;;;;;32.55;17.30;;;;;;;5.72;100.00;100584.31;4988988;28;20030;-77
2023/02/20 07:18:29;;;;;;;33.67;18.02;;;;;;;5.76;100.00;100585.72;4990329;28;20030;-78
2023/02/20 07:20:55;;;;;;;35.77;17.37;;;;;;;5.80;100.00;100595.06;4988808;28;20125;-77
2023/02/20 07:23:20;;;;;;;30.23;16.75;;;;;;;5.82;100.00;100595.75;4989470;28;20038;-76
2023/02/20 07:25:46;;;;;;;35.95;17.65;;;;;;;5.86;100.00;100601.66;4988682;28;20041;-75
2023/02/20 07:28:13;;;;;;;35.85;16.98;;;;;;;5.86;100.00;100591.88;5005073;28;20491;-76
2023/02/20 07:30:38;;;;;;;34.45;18.25;;;;;;;5.87;100.00;100606.78;4988765;28;20408;-78
2023/02/20 07:33:03;;;;;;;30.90;18.00;;;;;;;5.91;100.00;100588.81;4981723;28;20045;-77
2023/02/20 07:35:29;;;;;;;35.40;16.73;;;;;;;5.89;100.00;100594.25;5001278;28;20064;-76
2023/02/20 07:38:00;;;;;;;38.58;18.02;;;;;;;5.92;100.00;100601.94;4997494;28;20026;-77
2023/02/20 07:40:27;;;;;;;35.25;17.40;;;;;;;6.01;100.00;100604.78;5004757;28;20395;-77
2023/02/20 07:42:52;;;;;;;37.13;17.00;;;;;;;6.02;100.00;100601.16;4988263;28;20018;-77
2023/02/20 07:45:21;;;;;;;31.05;17.10;;;;;;;6.07;100.00;100606.88;4987961;28;20088;-77
2023/02/20 07:47:46;;;;;;;34.85;17.83;;;;;;;6.00;100.00;100593.34;5004826;28;20058;-77
2023/02/20 07:50:14;;;;;;;27.93;15.40;;;;;;;6.06;100.00;100591.94;4988611;28;20796;-77
2023/02/20 07:52:39;;;;;;;28.00;16.23;;;;;;;6.06;100.00;100598.09;4977804;28;20027;-77
2023/02/20 07:55:18;;;;;;;33.20;16.70;;;;;;;6.09;100.00;100599.63;4988242;28;20035;-77
2023/02/20 07:57:46;;;;;;;40.13;17.50;;;;;;;6.01;100.00;100580.91;5005004;28;20292;-77
2023/02/20 08:00:16;;;;;;;31.85;16.98;;;;;;;6.17;100.00;100591.81;4988741;28;20040;-76
2023/02/20 08:02:41;;;;;;;31.88;16.95;;;;;;;6.12;100.00;100591.41;5004547;28;20170;-76
2023/02/20 08:05:07;;;;;;;33.50;16.47;;;;;;;6.12;100.00;100602.00;4988673;28;20181;-77
2023/02/20 08:07:32;;;;;;;34.30;17.50;;;;;;;6.21;100.00;100593.22;4994048;28;20077;-78
2023/02/20 08:09:57;;;;;;;37.17;15.63;;;;;;;6.17;100.00;100591.81;5009042;28;20030;-78
2023/02/20 08:12:23;;;;;;;30.27;16.30;;;;;;;6.21;100.00;100605.66;4993739;28;20109;-79
2023/02/20 08:14:50;;;;;;;33.27;15.47;;;;;;;6.18;100.00;100601.47;5008609;28;20038;-80
2023/02/20 08:17:15;;;;;;;36.03;16.38;;;;;;;6.22;100.00;100591.41;4992587;28;20046;-77
2023/02/20 08:19:41;;;;;;;32.20;16.70;;;;;;;6.25;100.00;100591.13;4992327;28;20034;-78
2023/02/20 08:22:06;;;;;;;39.50;17.60;;;;;;;6.19;100.00;100581.94;4992084;28;20507;-76
2023/02/20 08:24:32;;;;;;;30.20;15.18;;;;;;;6.21;100.00;100573.84;4993565;28;20658;-77
2023/02/20 08:26:57;;;;;;;45.53;17.67;;;;;;;6.28;100.00;100581.09;4991761;28;20038;-78
2023/02/20 08:29:22;;;;;;;38.23;14.67;;;;;;;6.26;100.00;100595.47;4991852;28;20045;-80
2023/02/20 08:31:48;;;;;;;34.73;15.73;;;;;;;6.30;100.00;100594.22;4978911;28;20061;-78
2023/02/20 08:34:13;;;;;;;29.63;16.05;;;;;;;6.25;100.00;100591.13;4993295;28;20058;-78
2023/02/20 08:36:40;;;;;;;36.10;16.20;;;;;;;6.24;100.00;100584.16;5005824;28;20119;-76
2023/02/20 08:39:05;;;;;;;;;;;;;;;6.30;100.00;100610.97;5008615;28;20046;-77
2023/02/20 08:41:30;;;;;;;27.55;14.82;;;;;;;6.34;100.00;100607.06;4992996;28;20000;-76
2023/02/20 08:43:56;;;;;;;38.37;14.30;;;;;;;6.36;100.00;100598.13;4983139;28;20034;-78
2023/02/20 08:46:21;;;;;;;38.40;15.03;;;;;;;6.27;100.00;100587.34;4991515;28;20297;-76
2023/02/20 08:48:47;;;;;;;35.83;14.73;;;;;;;6.34;100.00;100591.16;4991994;28;20037;-76
2023/02/20 08:51:16;;;;;;;24.23;12.63;;;;;;;6.32;100.00;100587.81;5007125;28;20057;-77
2023/02/20 08:53:42;;;;;;;36.08;14.27;;;;;;;6.41;100.00;100585.28;4992490;28;20042;-77
2023/02/20 08:56:08;;;;;;;35.97;13.60;;;;;;;6.43;100.00;100564.75;4991311;28;20046;-76
2023/02/20 08:58:33;;;;;;;32.92;13.20;;;;;;;6.58;100.00;100571.34;4974603;28;20042;-78
2023/02/20 09:00:59;;;;;;;28.87;12.53;;;;;;;6.59;100.00;100553.59;4990704;28;20578;-77
2023/02/20 09:03:25;;;;;;;29.43;11.83;;;;;;;6.58;100.00;100549.25;4991470;28;20062;-76
2023/02/20 09:05:51;;;;;;;26.20;12.30;;;;;;;6.70;100.00;100548.97;4991018;28;20042;-76
2023/02/20 09:08:17;;;;;;;30.63;11.45;;;;;;;6.70;100.00;100541.00;5006608;28;20037;-78
2023/02/20 09:10:42;;;;;;;34.03;10.03;;;;;;;6.73;100.00;100524.78;5003670;28;20050;-78
2023/02/20 09:13:08;;;;;;;29.40;10.50;;;;;;;6.83;100.00;100537.22;4989404;28;20042;-76
2023/02/20 09:15:38;;;;;;;24.88;10.20;;;;;;;6.93;100.00;100544.19;5005208;28;20042;-77
2023/02/20 09:18:05;;;;;;;27.40;10.02;;;;;;;6.91;100.00;100540.81;4995018;28;20055;-80
2023/02/20 09:20:31;;;;;;;32.60;11.15;;;;;;;6.96;100.00;100554.50;5002820;28;20453;-77
2023/02/20 09:22:58;;;;;;;27.15;11.10;;;;;;;7.02;100.00;100550.41;4999152;28;20495;-76
2023/02/20 09:25:24;;;;;;;31.38;10.25;;;;;;;7.07;100.00;100529.59;4991114;28;20101;-78
2023/02/20 09:27:49;;;;;;;25.77;10.35;;;;;;;7.00;100.00;100512.59;4988888;28;20062;-79
2023/02/20 09:30:20;;;;;;;19.13;7.73;;;;;;;7.06;100.00;100535.06;4972747;28;20112;-78
2023/02/20 09:32:47;;;;;;;31.58;8.50;;;;;;;7.10;100.00;100534.63;5005206;28;20034;-78
2023/02/20 09:35:22;;;;;;;24.55;9.45;;;;;;;7.07;100.00;100512.81;4988926;28;20129;-76
2023/02/20 09:37:48;;;;;;;21.02;7.63;;;;;;;7.17;100.00;100487.09;5004812;28;20042;-76
2023/02/20 09:40:15;;;;;;;25.23;7.70;;;;;;;7.20;100.00;100508.03;4988966;28;20057;-79
2023/02/20 09:42:59;;;;;;;;;;;;;;;7.28;100.00;100510.81;4988396;28;20034;-79
2023/02/20 09:45:29;;;;;;;20.23;6.85;;;;;;;7.27;100.00;100484.38;4985427;28;19957;-80
2023/02/20 09:47:58;;;;;;;20.27;6.65;;;;;;;7.36;100.00;100483.50;5004669;28;20019;-79
2023/02/20 09:50:35;;;;;;;28.58;7.07;;;;;;;7.40;100.00;100474.25;5006033;28;20049;-77
2023/02/20 09:53:20;;;;;;;19.63;6.93;;;;;;;7.40;100.00;100463.63;5006686;28;20058;-79
2023/02/20 09:55:46;;;;;;;25.67;6.78;;;;;;;7.42;100.00;100476.75;5001886;28;20030;-79
2023/02/20 09:58:22;;;;;;;22.05;7.60;;;;;;;7.51;100.00;100474.03;5004346;28;20695;-79
2023/02/20 10:00:48;;;;;;;27.08;6.70;;;;;;;7.47;100.00;100479.78;4987549;28;20035;-77
2023/02/20 10:03:20;;;;;;;30.90;6.88;;;;;;;7.55;100.00;100455.97;4987558;28;20031;-77
2023/02/20 10:05:45;;;;;;;27.67;7.90;;;;;;;7.53;100.00;100445.50;4988401;28;20048;-80
2023/02/20 10:08:19;;;;;;;22.75;7.47;;;;;;;7.58;100.00;100443.22;4992776;28;20038;-79
2023/02/20 10:10:49;;;;;;;26.92;6.97;;;;;;;7.60;100.00;100435.09;4996021;28;20056;-78
2023/02/20 10:13:17;;;;;;;30.50;8.32;;;;;;;7.60;100.00;100432.44;5000306;28;20040;-78
2023/02/20 10:16:21;;;;;;;25.73;7.50;;;;;;;7.54;100.00;100417.97;5004500;28;20035;-76
2023/02/20 10:19:08;;;;;;;19.20;8.23;;;;;;;7.54;100.00;100425.09;4947834;29;20126;-79
2023/02/20 10:22:04;;;;;;;32.83;7.70;;;;;;;7.51;100.00;100404.97;4998846;28;20054;-79
2023/02/20 10:24:48;;;;;;;39.67;8.30;;;;;;;7.55;100.00;100395.72;4982079;28;20097;-80
2023/02/20 10:27:42;;;;;;;29.65;7.13;;;;;;;7.53;100.00;100423.41;5001052;28;20042;-78
2023/02/20 10:30:12;;;;;;;18.55;6.38;;;;;;;7.50;100.00;100413.94;4981316;28;20053;-76
2023/02/20 10:33:03;;;;;;;23.98;7.43;;;;;;;7.50;100.00;100426.38;4987287;28;20030;-76
2023/02/20 10:36:07;;;;;;;25.52;8.43;;;;;;;7.53;100.00;100426.91;4986933;28;20046;-78
2023/02/20 10:38:44;;;;;;;25.15;8.45;;;;;;;7.51;100.00;100425.38;4939620;28;20043;-76
2023/02/20 10:41:19;;;;;;;30.15;8.07;;;;;;;7.51;100.00;100418.25;5003952;28;20125;-78
2023/02/20 10:44:01;;;;;;;32.75;7.78;;;;;;;7.53;100.00;100421.59;4976830;28;20026;-77
2023/02/20 10:46:48;;;;;;;29.02;7.72;;;;;;;7.52;100.00;100397.84;5004059;28;20447;-78
2023/02/20 10:49:23;;;;;;;31.48;8.45;;;;;;;7.55;100.00;100411.66;4987706;28;20038;-78
2023/02/20 10:51:54;;;;;;;22.87;7.60;;;;;;;7.56;100.00;100397.41;4988712;28;20042;-78
2023/02/20 10:54:36;;;;;;;32.65;8.40;;;;;;;7.55;100.00;100389.56;4987798;28;20331;-79
2023/02/20 10:57:11;;;;;;;26.35;8.55;;;;;;;7.59;100.00;100383.78;4987595;28;20061;-76
2023/02/20 10:59:54;;;;;;;23.83;9.48;;;;;;;7.60;100.00;100380.13;4989013;28;20045;-78
2023/02/20 11:02:27;;;;;;;33.72;7.95;;;;;;;7.69;100.00;100343.03;4996205;28;20042;-77
2023/02/20 11:05:16;;;;;;;32.47;9.00;;;;;;;7.71;100.00;100319.81;4987657;28;20030;-75
2023/02/20 11:07:42;;;;;;;22.35;7.18;;;;;;;7.68;100.00;100328.06;5001826;28;20134;-79
2023/02/20 11:10:08;;;;;;;23.17;7.13;;;;;;;7.66;100.00;100316.78;5000982;28;20105;-78
2023/02/20 11:12:39;;;;;;;21.88;7.32;;;;;;;7.68;100.00;100317.44;5001374;28;20031;-80
2023/02/20 11:15:15;;;;;;;23.45;7.15;;;;;;;7.72;100.00;100310.81;4987796;28;20066;-77
2023/02/20 11:17:41;;;;;;;28.47;7.73;;;;;;;7.75;100.00;100300.75;4971724;28;20038;-79
2023/02/20 11:20:32;;;;;;;34.08;8.45;;;;;;;7.77;100.00;100309.41;4987928;28;20160;-77
2023/02/20 11:23:00;;;;;;;34.70;8.38;;;;;;;7.79;100.00;100290.63;5000941;28;20506;-77
2023/02/20 11:25:27;;;;;;;18.48;6.97;;;;;;;7.76;100.00;100285.63;4984969;28;20022;-76
2023/02/20 11:27:56;;;;;;;29.52;8.45;;;;;;;7.71;100.00;100274.63;4972607;28;20030;-78
2023/02/20 11:30:34;;;;;;;34.33;7.28;;;;;;;7.76;100.00;100270.50;4988007;28;20038;-76
2023/02/20 11:33:10;;;;;;;27.10;7.28;;;;;;;7.82;100.00;100291.16;5003184;28;20442;-76
2023/02/20 11:35:50;;;;;;;18.80;6.20;;;;;;;7.89;100.00;100275.41;4986447;28;20034;-77
2023/02/20 11:38:20;;;;;;;31.35;7.85;;;;;;;7.88;100.00;100273.72;4988054;28;20081;-77
2023/02/20 11:40:51;;;;;;;28.95;7.65;;;;;;;7.92;100.00;100279.59;4988598;28;20073;-75
2023/02/20 11:43:29;;;;;;;31.88;8.55;;;;;;;7.89;100.00;100264.78;4987515;28;20038;-76
2023/02/20 11:46:08;;;;;;;26.42;7.43;;;;;;;7.94;100.00;100262.50;4987075;28;20379;-79
2023/02/20 11:48:33;;;;;;;22.42;6.57;;;;;;;7.94;100.00;100235.91;4971239;28;20034;-76
2023/02/20 11:50:59;;;;;;;22.80;7.30;;;;;;;7.90;100.00;100242.53;4988507;28;20440;-76